createdAt,value
2024-03-16T00:00:10.911Z,22.23
2024-03-16T00:02:38.790Z,22.43
2024-03-16T00:05:07.338Z,23.53
2024-03-16T00:07:35.233Z,23.07
2024-03-16T00:10:03.554Z,23.83
2024-03-16T00:12:31.859Z,25.13
2024-03-16T00:14:59.964Z,25.70
2024-03-16T00:17:28.802Z,25.30
2024-03-16T00:19:56.829Z,24.03
2024-03-16T00:22:24.652Z,24.87
2024-03-16T00:24:51.523Z,25.00
2024-03-16T00:27:19.611Z,26.10
2024-03-16T00:29:47.528Z,25.70
2024-03-16T00:32:16.415Z,23.73
2024-03-16T00:34:44.525Z,25.13
2024-03-16T00:37:12.435Z,25.17
2024-03-16T00:39:41.165Z,24.53
2024-03-16T00:42:10.933Z,23.90
2024-03-16T00:44:38.803Z,21.77
2024-03-16T00:47:06.793Z,22.10
2024-03-16T00:49:36.007Z,22.43
2024-03-16T00:52:03.812Z,23.00
2024-03-16T00:54:31.841Z,21.70
2024-03-16T00:56:59.605Z,21.80
2024-03-16T00:59:29.313Z,22.80
2024-03-16T01:01:57.451Z,21.57
2024-03-16T01:04:25.800Z,23.00
2024-03-16T01:06:53.710Z,21.17
2024-03-16T01:09:22.069Z,22.40
2024-03-16T01:11:49.839Z,22.87
2024-03-16T01:14:17.610Z,23.40
2024-03-16T01:16:45.631Z,21.73
2024-03-16T01:19:13.417Z,22.00
2024-03-16T01:21:41.441Z,21.20
2024-03-16T01:24:09.340Z,21.60
2024-03-16T01:26:37.175Z,21.60
2024-03-16T01:29:05.303Z,21.57
2024-03-16T01:31:33.152Z,23.40
2024-03-16T01:34:01.009Z,22.37
2024-03-16T01:36:29.032Z,22.47
2024-03-16T01:38:57.117Z,23.17
2024-03-16T01:41:25.039Z,22.43
2024-03-16T01:43:52.917Z,23.60
2024-03-16T01:46:20.824Z,23.33
2024-03-16T01:48:53.080Z,22.73
2024-03-16T01:51:21.252Z,23.30
2024-03-16T01:53:49.200Z,22.60
2024-03-16T01:56:17.452Z,22.10
2024-03-16T01:58:46.651Z,22.67
2024-03-16T02:01:14.633Z,21.87
2024-03-16T02:03:44.201Z,22.23
2024-03-16T02:06:12.139Z,23.50
2024-03-16T02:08:40.054Z,23.40
2024-03-16T02:11:07.870Z,25.10
2024-03-16T02:13:35.840Z,23.73
2024-03-16T02:16:04.194Z,24.87
2024-03-16T02:18:32.168Z,23.90
2024-03-16T02:20:59.999Z,24.87
2024-03-16T02:23:28.039Z,25.03
2024-03-16T02:25:56.087Z,23.93
2024-03-16T02:28:23.928Z,25.37
2024-03-16T02:30:51.832Z,26.97
2024-03-16T02:33:19.761Z,25.20
2024-03-16T02:35:48.024Z,28.10
2024-03-16T02:38:15.969Z,25.20
2024-03-16T02:40:44.508Z,29.07
2024-03-16T02:43:12.613Z,28.73
2024-03-16T02:45:40.508Z,26.90
2024-03-16T02:48:08.741Z,28.30
2024-03-16T02:50:36.504Z,28.20
2024-03-16T02:53:04.935Z,28.13
2024-03-16T02:55:32.886Z,26.83
2024-03-16T02:58:00.682Z,27.77
2024-03-16T03:00:29.329Z,27.90
2024-03-16T03:02:58.432Z,29.43
2024-03-16T03:05:26.265Z,27.33
2024-03-16T03:07:54.572Z,27.53
2024-03-16T03:10:22.890Z,26.40
2024-03-16T03:12:50.871Z,26.07
2024-03-16T03:15:20.644Z,27.70
2024-03-16T03:17:49.410Z,28.73
2024-03-16T03:20:17.787Z,27.93
2024-03-16T03:22:45.563Z,27.30
2024-03-16T03:25:13.608Z,29.00
2024-03-16T03:27:41.604Z,28.60
2024-03-16T03:30:09.617Z,31.00
2024-03-16T03:32:37.576Z,27.20
2024-03-16T03:35:06.398Z,31.53
2024-03-16T03:37:34.212Z,29.70
2024-03-16T03:40:02.519Z,29.93
2024-03-16T03:42:34.332Z,28.30
2024-03-16T03:45:15.528Z,28.13
2024-03-16T03:47:51.534Z,25.83
2024-03-16T03:50:27.668Z,23.90
2024-03-16T03:52:56.322Z,20.97
2024-03-16T03:55:24.431Z,21.70
2024-03-16T03:57:55.370Z,21.87
2024-03-16T04:00:23.855Z,22.20
2024-03-16T04:02:51.686Z,20.80
2024-03-16T04:05:19.436Z,20.83
2024-03-16T04:07:47.269Z,21.60
2024-03-16T04:10:15.025Z,20.13
2024-03-16T04:12:42.878Z,20.83
2024-03-16T04:15:10.721Z,18.10
2024-03-16T04:17:38.644Z,18.47
2024-03-16T04:20:07.830Z,18.67
2024-03-16T04:22:35.731Z,16.80
2024-03-16T04:25:04.811Z,17.63
2024-03-16T04:27:32.693Z,18.30
2024-03-16T04:30:00.690Z,18.27
2024-03-16T04:32:28.901Z,18.47
2024-03-16T04:34:56.733Z,18.10
2024-03-16T04:37:24.674Z,17.87
2024-03-16T04:39:52.830Z,17.87
2024-03-16T04:42:21.181Z,18.90
2024-03-16T04:44:48.993Z,20.33
2024-03-16T04:47:16.806Z,20.60
2024-03-16T04:49:45.905Z,19.27
2024-03-16T04:52:15.123Z,18.33
2024-03-16T04:54:42.903Z,19.53
2024-03-16T04:57:10.810Z,19.23
2024-03-16T04:59:38.614Z,18.73
2024-03-16T05:02:07.153Z,18.97
2024-03-16T05:04:35.035Z,19.50
2024-03-16T05:07:02.851Z,17.30
2024-03-16T05:09:30.966Z,16.60
2024-03-16T05:11:58.854Z,18.07
2024-03-16T05:14:26.675Z,17.80
2024-03-16T05:16:54.418Z,17.83
2024-03-16T05:19:22.380Z,16.90
2024-03-16T05:21:50.197Z,18.90
2024-03-16T05:24:17.977Z,18.07
2024-03-16T05:26:45.928Z,17.80
2024-03-16T05:29:13.709Z,16.77
2024-03-16T05:31:41.450Z,17.77
2024-03-16T05:34:09.636Z,16.90
2024-03-16T05:36:37.466Z,18.03
2024-03-16T05:39:05.373Z,16.57
2024-03-16T05:41:33.479Z,16.00
2024-03-16T05:44:01.347Z,16.70
2024-03-16T05:46:29.205Z,15.80
2024-03-16T05:48:58.008Z,16.50
2024-03-16T05:51:28.371Z,16.40
2024-03-16T05:53:56.461Z,16.90
2024-03-16T05:56:24.341Z,16.40
2024-03-16T05:58:52.236Z,16.93
2024-03-16T06:01:20.282Z,17.17
2024-03-16T06:03:48.115Z,16.67
2024-03-16T06:06:16.638Z,15.40
2024-03-16T06:08:45.355Z,15.60
2024-03-16T06:11:13.163Z,15.10
2024-03-16T06:13:41.090Z,15.10
2024-03-16T06:16:09.124Z,15.80
2024-03-16T06:18:40.988Z,14.73
2024-03-16T06:21:11.148Z,16.10
2024-03-16T06:23:39.084Z,15.03
2024-03-16T06:26:07.715Z,14.73
2024-03-16T06:28:37.882Z,16.83
2024-03-16T06:31:11.604Z,16.17
2024-03-16T06:33:46.438Z,15.60
2024-03-16T06:36:14.309Z,15.20
2024-03-16T06:38:43.289Z,15.50
2024-03-16T06:41:11.512Z,15.63
2024-03-16T06:43:39.394Z,16.00
2024-03-16T06:46:09.431Z,15.67
2024-03-16T06:48:37.287Z,15.10
2024-03-16T06:51:05.293Z,15.23
2024-03-16T06:53:33.081Z,14.83
2024-03-16T06:56:00.835Z,15.63
2024-03-16T06:58:28.682Z,15.20
2024-03-16T07:00:56.663Z,16.57
2024-03-16T07:03:24.823Z,17.23
2024-03-16T07:05:52.529Z,17.37
2024-03-16T07:08:20.366Z,16.83
2024-03-16T07:10:48.146Z,17.37
2024-03-16T07:13:16.072Z,16.70
2024-03-16T07:15:45.274Z,15.83
2024-03-16T07:18:13.410Z,16.87
2024-03-16T07:20:41.171Z,17.23
2024-03-16T07:23:09.044Z,15.80
2024-03-16T07:25:36.934Z,15.07
2024-03-16T07:28:05.605Z,15.57
2024-03-16T07:30:33.593Z,16.27
2024-03-16T07:33:01.984Z,15.20
2024-03-16T07:35:30.130Z,15.80
2024-03-16T07:37:57.969Z,14.80
2024-03-16T07:40:25.720Z,14.57
2024-03-16T07:42:53.669Z,15.80
2024-03-16T07:45:21.650Z,14.37
2024-03-16T07:47:49.472Z,15.30
2024-03-16T07:50:17.258Z,14.80
2024-03-16T07:52:45.106Z,14.80
2024-03-16T07:55:13.170Z,15.33
2024-03-16T07:57:41.229Z,15.77
2024-03-16T08:00:12.470Z,17.30
2024-03-16T08:02:41.475Z,16.50
2024-03-16T08:05:12.498Z,14.73
2024-03-16T08:07:41.840Z,14.50
2024-03-16T08:10:11.170Z,14.70
2024-03-16T08:12:39.045Z,16.30
2024-03-16T08:15:07.882Z,15.90
2024-03-16T08:17:35.760Z,15.37
2024-03-16T08:20:03.800Z,15.20
2024-03-16T08:22:31.666Z,15.73
2024-03-16T08:24:59.515Z,15.33
2024-03-16T08:27:32.490Z,14.37
2024-03-16T08:30:02.652Z,16.00
2024-03-16T08:32:31.016Z,15.50
2024-03-16T08:34:58.791Z,14.80
2024-03-16T08:37:26.661Z,15.10
2024-03-16T08:39:54.596Z,14.63
2024-03-16T08:42:22.598Z,16.60
2024-03-16T08:44:50.379Z,15.53
2024-03-16T08:47:18.153Z,15.27
2024-03-16T08:49:45.891Z,16.93
2024-03-16T08:52:14.554Z,15.50
2024-03-16T08:54:42.452Z,15.40
2024-03-16T08:57:10.193Z,15.77
2024-03-16T08:59:39.578Z,17.77
2024-03-16T09:02:07.473Z,16.47
2024-03-16T09:04:35.722Z,16.70
2024-03-16T09:07:03.793Z,16.50
2024-03-16T09:09:31.653Z,16.53
2024-03-16T09:11:59.454Z,17.43
2024-03-16T09:14:27.341Z,15.33
2024-03-16T09:16:55.106Z,16.20
2024-03-16T09:19:22.952Z,16.17
2024-03-16T09:21:52.004Z,16.10
2024-03-16T09:24:19.818Z,16.07
2024-03-16T09:26:47.607Z,15.63
2024-03-16T09:29:15.500Z,14.60
2024-03-16T09:31:43.380Z,15.83
2024-03-16T09:34:12.850Z,14.70
2024-03-16T09:36:41.194Z,16.40
2024-03-16T09:39:11.766Z,15.43
2024-03-16T09:41:40.598Z,14.77
